sensor_id;sensor_type;location;lat;lon;timestamp;temperature;humidity
1337;DHT22;662;48.814;9.318;2022-11-15T00:00:47;11.60;72.80
1337;DHT22;662;48.814;9.318;2022-11-15T00:03:17;11.60;72.80
1337;DHT22;662;48.814;9.318;2022-11-15T00:05:43;11.60;72.80
1337;DHT22;662;48.814;9.318;2022-11-15T00:08:09;11.60;72.80
1337;DHT22;662;48.814;9.318;2022-11-15T00:10:35;11.60;72.80
1337;DHT22;662;48.814;9.318;2022-11-15T00:13:05;11.60;72.70
1337;DHT22;662;48.814;9.318;2022-11-15T00:15:35;11.60;72.70
1337;DHT22;662;48.814;9.318;2022-11-15T00:18:01;11.70;72.70
1337;DHT22;662;48.814;9.318;2022-11-15T00:20:26;11.70;72.60
1337;DHT22;662;48.814;9.318;2022-11-15T00:22:52;11.70;72.50
1337;DHT22;662;48.814;9.318;2022-11-15T00:25:18;11.70;72.40
1337;DHT22;662;48.814;9.318;2022-11-15T00:27:43;11.70;72.40
1337;DHT22;662;48.814;9.318;2022-11-15T00:30:11;11.70;72.50
1337;DHT22;662;48.814;9.318;2022-11-15T00:32:36;11.70;72.50
1337;DHT22;662;48.814;9.318;2022-11-15T00:35:02;11.70;72.50
1337;DHT22;662;48.814;9.318;2022-11-15T00:37:28;11.70;72.50
1337;DHT22;662;48.814;9.318;2022-11-15T00:39:54;11.70;72.60
1337;DHT22;662;48.814;9.318;2022-11-15T00:42:19;11.70;72.60
1337;DHT22;662;48.814;9.318;2022-11-15T00:44:45;11.70;72.70
1337;DHT22;662;48.814;9.318;2022-11-15T00:47:10;11.70;72.70
1337;DHT22;662;48.814;9.318;2022-11-15T00:49:36;11.70;72.80
1337;DHT22;662;48.814;9.318;2022-11-15T00:52:02;11.70;72.90
1337;DHT22;662;48.814;9.318;2022-11-15T00:54:28;11.60;72.70
1337;DHT22;662;48.814;9.318;2022-11-15T00:56:53;11.60;72.70
1337;DHT22;662;48.814;9.318;2022-11-15T00:59:19;11.60;72.80
1337;DHT22;662;48.814;9.318;2022-11-15T01:01:44;11.60;72.80
1337;DHT22;662;48.814;9.318;2022-11-15T01:04:10;11.60;72.80
1337;DHT22;662;48.814;9.318;2022-11-15T01:06:36;11.60;72.90
1337;DHT22;662;48.814;9.318;2022-11-15T01:09:01;11.60;72.70
1337;DHT22;662;48.814;9.318;2022-11-15T01:11:27;11.60;72.70
1337;DHT22;662;48.814;9.318;2022-11-15T01:13:52;11.60;72.70
1337;DHT22;662;48.814;9.318;2022-11-15T01:16:19;11.60;72.50
1337;DHT22;662;48.814;9.318;2022-11-15T01:18:45;11.60;72.50
1337;DHT22;662;48.814;9.318;2022-11-15T01:21:17;11.60;72.30
1337;DHT22;662;48.814;9.318;2022-11-15T01:23:43;11.60;72.30
1337;DHT22;662;48.814;9.318;2022-11-15T01:26:12;11.50;72.20
1337;DHT22;662;48.814;9.318;2022-11-15T01:28:40;11.50;72.20
1337;DHT22;662;48.814;9.318;2022-11-15T01:31:09;11.50;72.20
1337;DHT22;662;48.814;9.318;2022-11-15T01:33:36;11.50;72.30
1337;DHT22;662;48.814;9.318;2022-11-15T01:36:11;11.40;72.30
1337;DHT22;662;48.814;9.318;2022-11-15T01:38:37;11.40;72.30
1337;DHT22;662;48.814;9.318;2022-11-15T01:41:04;11.40;72.40
1337;DHT22;662;48.814;9.318;2022-11-15T01:43:34;11.40;72.60
1337;DHT22;662;48.814;9.318;2022-11-15T01:46:04;11.30;72.50
1337;DHT22;662;48.814;9.318;2022-11-15T01:48:35;11.30;72.60
1337;DHT22;662;48.814;9.318;2022-11-15T01:51:04;11.30;72.70
1337;DHT22;662;48.814;9.318;2022-11-15T01:53:32;11.20;72.60
1337;DHT22;662;48.814;9.318;2022-11-15T01:56:02;11.20;72.70
1337;DHT22;662;48.814;9.318;2022-11-15T01:58:29;11.10;72.60
1337;DHT22;662;48.814;9.318;2022-11-15T02:00:55;11.10;72.70
1337;DHT22;662;48.814;9.318;2022-11-15T02:03:22;11.10;72.90
1337;DHT22;662;48.814;9.318;2022-11-15T02:05:51;11.00;72.80
1337;DHT22;662;48.814;9.318;2022-11-15T02:08:17;11.00;73.00
1337;DHT22;662;48.814;9.318;2022-11-15T02:10:46;11.00;73.00
1337;DHT22;662;48.814;9.318;2022-11-15T02:13:16;10.90;73.00
1337;DHT22;662;48.814;9.318;2022-11-15T02:18:35;10.90;73.10
1337;DHT22;662;48.814;9.318;2022-11-15T02:21:14;10.80;73.00
1337;DHT22;662;48.814;9.318;2022-11-15T02:32:19;10.70;73.20
1337;DHT22;662;48.814;9.318;2022-11-15T02:34:56;10.60;73.20
1337;DHT22;662;48.814;9.318;2022-11-15T02:37:55;10.60;73.20
1337;DHT22;662;48.814;9.318;2022-11-15T02:43:08;10.50;73.30
1337;DHT22;662;48.814;9.318;2022-11-15T02:46:00;10.50;73.50
1337;DHT22;662;48.814;9.318;2022-11-15T02:48:27;10.50;73.60
1337;DHT22;662;48.814;9.318;2022-11-15T02:50:54;10.50;73.80
1337;DHT22;662;48.814;9.318;2022-11-15T02:53:27;10.50;74.00
1337;DHT22;662;48.814;9.318;2022-11-15T02:55:53;10.40;74.00
1337;DHT22;662;48.814;9.318;2022-11-15T03:04:19;10.40;74.30
1337;DHT22;662;48.814;9.318;2022-11-15T03:06:55;10.40;74.30
1337;DHT22;662;48.814;9.318;2022-11-15T03:10:01;10.40;74.40
1337;DHT22;662;48.814;9.318;2022-11-15T03:12:30;10.40;74.40
1337;DHT22;662;48.814;9.318;2022-11-15T03:15:29;10.40;74.40
1337;DHT22;662;48.814;9.318;2022-11-15T03:18:07;10.40;74.50
1337;DHT22;662;48.814;9.318;2022-11-15T03:20:36;10.30;74.40
1337;DHT22;662;48.814;9.318;2022-11-15T03:23:09;10.40;74.60
1337;DHT22;662;48.814;9.318;2022-11-15T03:25:40;10.30;74.40
1337;DHT22;662;48.814;9.318;2022-11-15T03:28:09;10.30;74.40
1337;DHT22;662;48.814;9.318;2022-11-15T03:30:39;10.30;74.40
1337;DHT22;662;48.814;9.318;2022-11-15T03:33:06;10.30;74.40
1337;DHT22;662;48.814;9.318;2022-11-15T03:35:37;10.30;74.50
1337;DHT22;662;48.814;9.318;2022-11-15T03:38:24;10.30;74.50
1337;DHT22;662;48.814;9.318;2022-11-15T03:41:06;10.30;74.50
1337;DHT22;662;48.814;9.318;2022-11-15T03:46:57;10.30;74.50
1337;DHT22;662;48.814;9.318;2022-11-15T03:49:31;10.30;74.50
1337;DHT22;662;48.814;9.318;2022-11-15T03:51:59;10.30;74.50
1337;DHT22;662;48.814;9.318;2022-11-15T03:54:24;10.20;74.50
1337;DHT22;662;48.814;9.318;2022-11-15T03:56:50;10.20;74.60
1337;DHT22;662;48.814;9.318;2022-11-15T03:59:16;10.20;74.70
1337;DHT22;662;48.814;9.318;2022-11-15T04:01:41;10.30;74.90
1337;DHT22;662;48.814;9.318;2022-11-15T04:04:07;10.30;74.90
1337;DHT22;662;48.814;9.318;2022-11-15T04:06:33;10.20;74.90
1337;DHT22;662;48.814;9.318;2022-11-15T04:08:59;10.20;74.90
1337;DHT22;662;48.814;9.318;2022-11-15T04:11:24;10.20;74.90
1337;DHT22;662;48.814;9.318;2022-11-15T04:13:50;10.20;74.90
1337;DHT22;662;48.814;9.318;2022-11-15T04:16:16;10.20;74.90
1337;DHT22;662;48.814;9.318;2022-11-15T04:18:41;10.20;74.80
1337;DHT22;662;48.814;9.318;2022-11-15T04:21:08;10.20;74.80
1337;DHT22;662;48.814;9.318;2022-11-15T04:23:51;10.20;74.80
1337;DHT22;662;48.814;9.318;2022-11-15T04:26:22;10.20;74.70
1337;DHT22;662;48.814;9.318;2022-11-15T04:28:48;10.10;74.60
1337;DHT22;662;48.814;9.318;2022-11-15T04:31:37;10.10;74.60
1337;DHT22;662;48.814;9.318;2022-11-15T04:34:02;10.10;74.60
1337;DHT22;662;48.814;9.318;2022-11-15T04:36:28;10.10;74.70
1337;DHT22;662;48.814;9.318;2022-11-15T04:39:12;10.10;74.80
1337;DHT22;662;48.814;9.318;2022-11-15T04:41:37;10.10;74.90
1337;DHT22;662;48.814;9.318;2022-11-15T04:44:03;10.00;74.80
1337;DHT22;662;48.814;9.318;2022-11-15T04:46:28;10.00;74.80
1337;DHT22;662;48.814;9.318;2022-11-15T04:48:54;10.00;74.90
1337;DHT22;662;48.814;9.318;2022-11-15T04:51:20;10.00;74.90
1337;DHT22;662;48.814;9.318;2022-11-15T04:53:46;10.00;74.90
1337;DHT22;662;48.814;9.318;2022-11-15T04:56:12;10.00;74.90
1337;DHT22;662;48.814;9.318;2022-11-15T04:58:37;10.00;74.90
1337;DHT22;662;48.814;9.318;2022-11-15T05:01:07;10.00;74.90
1337;DHT22;662;48.814;9.318;2022-11-15T05:03:33;10.00;75.00
1337;DHT22;662;48.814;9.318;2022-11-15T05:06:17;10.00;75.00
1337;DHT22;662;48.814;9.318;2022-11-15T05:08:43;9.90;76.10
1337;DHT22;662;48.814;9.318;2022-11-15T05:11:08;9.90;76.20
1337;DHT22;662;48.814;9.318;2022-11-15T05:13:34;9.90;76.10
1337;DHT22;662;48.814;9.318;2022-11-15T05:15:59;9.90;76.20
1337;DHT22;662;48.814;9.318;2022-11-15T05:18:25;9.90;76.30
1337;DHT22;662;48.814;9.318;2022-11-15T05:20:51;9.90;76.30
1337;DHT22;662;48.814;9.318;2022-11-15T05:23:16;9.90;76.20
1337;DHT22;662;48.814;9.318;2022-11-15T05:25:42;9.90;76.30
1337;DHT22;662;48.814;9.318;2022-11-15T05:28:07;9.90;76.20
1337;DHT22;662;48.814;9.318;2022-11-15T05:30:33;9.90;76.40
1337;DHT22;662;48.814;9.318;2022-11-15T05:32:59;9.90;76.40
1337;DHT22;662;48.814;9.318;2022-11-15T05:35:39;9.90;76.40
1337;DHT22;662;48.814;9.318;2022-11-15T05:38:05;9.90;76.50
1337;DHT22;662;48.814;9.318;2022-11-15T05:40:31;9.90;76.60
1337;DHT22;662;48.814;9.318;2022-11-15T05:42:59;9.80;76.50
1337;DHT22;662;48.814;9.318;2022-11-15T05:45:26;9.80;76.50
1337;DHT22;662;48.814;9.318;2022-11-15T05:47:52;9.80;76.60
1337;DHT22;662;48.814;9.318;2022-11-15T05:50:18;9.90;76.90
1337;DHT22;662;48.814;9.318;2022-11-15T05:52:45;9.80;76.80
1337;DHT22;662;48.814;9.318;2022-11-15T05:55:11;9.90;76.80
1337;DHT22;662;48.814;9.318;2022-11-15T05:57:38;9.90;77.40
1337;DHT22;662;48.814;9.318;2022-11-15T06:00:04;9.80;76.60
1337;DHT22;662;48.814;9.318;2022-11-15T06:02:30;9.80;76.60
1337;DHT22;662;48.814;9.318;2022-11-15T06:04:56;9.80;76.60
1337;DHT22;662;48.814;9.318;2022-11-15T06:07:22;9.80;76.50
1337;DHT22;662;48.814;9.318;2022-11-15T06:09:47;9.80;76.40
1337;DHT22;662;48.814;9.318;2022-11-15T06:12:13;9.80;76.40
1337;DHT22;662;48.814;9.318;2022-11-15T06:14:39;9.80;76.30
1337;DHT22;662;48.814;9.318;2022-11-15T06:17:04;9.80;76.20
1337;DHT22;662;48.814;9.318;2022-11-15T06:19:30;9.80;76.30
1337;DHT22;662;48.814;9.318;2022-11-15T06:21:59;9.80;76.30
1337;DHT22;662;48.814;9.318;2022-11-15T06:24:24;9.80;76.30
1337;DHT22;662;48.814;9.318;2022-11-15T06:26:50;9.80;76.30
1337;DHT22;662;48.814;9.318;2022-11-15T06:29:16;9.80;76.30
1337;DHT22;662;48.814;9.318;2022-11-15T06:31:41;9.80;76.20
1337;DHT22;662;48.814;9.318;2022-11-15T06:34:07;9.80;76.30
1337;DHT22;662;48.814;9.318;2022-11-15T06:36:34;9.80;76.20
1337;DHT22;662;48.814;9.318;2022-11-15T06:39:00;9.80;76.20
1337;DHT22;662;48.814;9.318;2022-11-15T06:41:26;9.80;76.30
1337;DHT22;662;48.814;9.318;2022-11-15T06:43:51;9.80;76.30
1337;DHT22;662;48.814;9.318;2022-11-15T06:46:17;9.80;76.20
1337;DHT22;662;48.814;9.318;2022-11-15T06:48:43;9.80;76.30
1337;DHT22;662;48.814;9.318;2022-11-15T06:51:08;9.80;76.30
1337;DHT22;662;48.814;9.318;2022-11-15T06:53:34;9.80;76.30
1337;DHT22;662;48.814;9.318;2022-11-15T06:56:01;9.80;76.30
1337;DHT22;662;48.814;9.318;2022-11-15T06:58:27;9.80;76.30
1337;DHT22;662;48.814;9.318;2022-11-15T07:00:53;9.70;76.20
1337;DHT22;662;48.814;9.318;2022-11-15T07:03:19;9.80;76.30
1337;DHT22;662;48.814;9.318;2022-11-15T07:05:55;9.80;76.40
1337;DHT22;662;48.814;9.318;2022-11-15T07:08:22;9.80;76.40
1337;DHT22;662;48.814;9.318;2022-11-15T07:10:48;9.70;76.40
1337;DHT22;662;48.814;9.318;2022-11-15T07:13:14;9.80;76.60
1337;DHT22;662;48.814;9.318;2022-11-15T07:15:39;9.80;77.20
1337;DHT22;662;48.814;9.318;2022-11-15T07:18:05;9.80;76.60
1337;DHT22;662;48.814;9.318;2022-11-15T07:20:30;9.80;76.60
1337;DHT22;662;48.814;9.318;2022-11-15T07:23:01;9.90;76.70
1337;DHT22;662;48.814;9.318;2022-11-15T07:25:27;9.90;76.80
1337;DHT22;662;48.814;9.318;2022-11-15T07:27:57;9.90;76.80
1337;DHT22;662;48.814;9.318;2022-11-15T07:30:23;9.90;76.80
1337;DHT22;662;48.814;9.318;2022-11-15T07:32:54;10.00;75.70
1337;DHT22;662;48.814;9.318;2022-11-15T07:35:20;10.00;75.70
1337;DHT22;662;48.814;9.318;2022-11-15T07:38:02;10.10;75.90
1337;DHT22;662;48.814;9.318;2022-11-15T07:40:30;10.10;75.70
1337;DHT22;662;48.814;9.318;2022-11-15T07:43:04;10.20;75.80
1337;DHT22;662;48.814;9.318;2022-11-15T07:45:30;10.30;75.90
1337;DHT22;662;48.814;9.318;2022-11-15T07:47:56;10.40;75.80
1337;DHT22;662;48.814;9.318;2022-11-15T07:50:23;10.50;75.80
1337;DHT22;662;48.814;9.318;2022-11-15T07:52:56;10.60;75.70
1337;DHT22;662;48.814;9.318;2022-11-15T07:55:23;10.70;75.50
1337;DHT22;662;48.814;9.318;2022-11-15T07:57:49;10.70;75.30
1337;DHT22;662;48.814;9.318;2022-11-15T08:00:15;10.90;75.20
1337;DHT22;662;48.814;9.318;2022-11-15T08:02:41;11.00;75.10
1337;DHT22;662;48.814;9.318;2022-11-15T08:05:07;11.10;75.00
1337;DHT22;662;48.814;9.318;2022-11-15T08:07:33;11.20;74.70
1337;DHT22;662;48.814;9.318;2022-11-15T08:09:59;11.20;74.40
1337;DHT22;662;48.814;9.318;2022-11-15T08:12:27;11.40;74.50
1337;DHT22;662;48.814;9.318;2022-11-15T08:14:54;11.50;74.40
1337;DHT22;662;48.814;9.318;2022-11-15T08:17:22;11.50;74.10
1337;DHT22;662;48.814;9.318;2022-11-15T08:19:47;11.60;74.00
1337;DHT22;662;48.814;9.318;2022-11-15T08:22:13;11.70;74.00
1337;DHT22;662;48.814;9.318;2022-11-15T08:24:39;11.80;73.90
1337;DHT22;662;48.814;9.318;2022-11-15T08:27:05;11.80;73.70
1337;DHT22;662;48.814;9.318;2022-11-15T08:29:44;12.00;73.70
1337;DHT22;662;48.814;9.318;2022-11-15T08:32:10;12.00;73.60
1337;DHT22;662;48.814;9.318;2022-11-15T08:34:39;12.10;73.40
1337;DHT22;662;48.814;9.318;2022-11-15T08:37:05;12.20;73.30
1337;DHT22;662;48.814;9.318;2022-11-15T08:39:31;12.30;73.20
1337;DHT22;662;48.814;9.318;2022-11-15T08:41:56;12.30;73.00
1337;DHT22;662;48.814;9.318;2022-11-15T08:44:22;12.40;72.90
1337;DHT22;662;48.814;9.318;2022-11-15T08:46:49;12.40;72.70
1337;DHT22;662;48.814;9.318;2022-11-15T08:49:15;12.50;72.60
1337;DHT22;662;48.814;9.318;2022-11-15T08:51:41;12.50;72.40
1337;DHT22;662;48.814;9.318;2022-11-15T08:54:07;12.60;72.20
1337;DHT22;662;48.814;9.318;2022-11-15T08:56:32;12.60;72.00
1337;DHT22;662;48.814;9.318;2022-11-15T08:58:58;12.60;71.60
1337;DHT22;662;48.814;9.318;2022-11-15T09:01:24;12.70;71.40
1337;DHT22;662;48.814;9.318;2022-11-15T09:03:50;12.80;71.30
1337;DHT22;662;48.814;9.318;2022-11-15T09:06:16;12.80;71.10
1337;DHT22;662;48.814;9.318;2022-11-15T09:08:42;12.90;71.10
1337;DHT22;662;48.814;9.318;2022-11-15T09:11:08;12.90;70.80
1337;DHT22;662;48.814;9.318;2022-11-15T09:13:35;13.10;70.90
1337;DHT22;662;48.814;9.318;2022-11-15T09:16:04;13.20;70.60
1337;DHT22;662;48.814;9.318;2022-11-15T09:18:31;13.20;70.20
1337;DHT22;662;48.814;9.318;2022-11-15T09:20:58;13.30;69.90
1337;DHT22;662;48.814;9.318;2022-11-15T09:23:24;13.40;69.90
1337;DHT22;662;48.814;9.318;2022-11-15T09:25:51;13.40;69.80
1337;DHT22;662;48.814;9.318;2022-11-15T09:28:18;13.50;69.80
1337;DHT22;662;48.814;9.318;2022-11-15T09:30:43;13.60;69.90
1337;DHT22;662;48.814;9.318;2022-11-15T09:33:10;13.70;69.80
1337;DHT22;662;48.814;9.318;2022-11-15T09:35:37;13.80;69.70
1337;DHT22;662;48.814;9.318;2022-11-15T09:38:03;13.90;69.50
1337;DHT22;662;48.814;9.318;2022-11-15T09:40:30;14.10;69.40
1337;DHT22;662;48.814;9.318;2022-11-15T09:45:31;14.30;68.70
1337;DHT22;662;48.814;9.318;2022-11-15T09:50:52;14.60;67.70
1337;DHT22;662;48.814;9.318;2022-11-15T09:53:32;14.70;67.40
1337;DHT22;662;48.814;9.318;2022-11-15T09:56:14;14.70;66.80
1337;DHT22;662;48.814;9.318;2022-11-15T10:04:21;14.70;66.50
1337;DHT22;662;48.814;9.318;2022-11-15T10:09:38;14.70;66.20
1337;DHT22;662;48.814;9.318;2022-11-15T10:12:07;14.80;65.90
1337;DHT22;662;48.814;9.318;2022-11-15T10:14:34;14.80;65.60
1337;DHT22;662;48.814;9.318;2022-11-15T10:17:25;14.90;65.50
1337;DHT22;662;48.814;9.318;2022-11-15T10:19:59;15.00;65.50
1337;DHT22;662;48.814;9.318;2022-11-15T10:22:31;15.20;65.30
1337;DHT22;662;48.814;9.318;2022-11-15T10:25:12;15.30;65.00
1337;DHT22;662;48.814;9.318;2022-11-15T10:27:41;15.40;64.90
1337;DHT22;662;48.814;9.318;2022-11-15T10:30:15;15.50;64.70
1337;DHT22;662;48.814;9.318;2022-11-15T10:32:43;15.50;64.40
1337;DHT22;662;48.814;9.318;2022-11-15T10:35:21;15.50;64.20
1337;DHT22;662;48.814;9.318;2022-11-15T10:37:47;15.60;64.10
1337;DHT22;662;48.814;9.318;2022-11-15T10:40:21;15.60;64.10
1337;DHT22;662;48.814;9.318;2022-11-15T10:42:48;15.70;63.80
1337;DHT22;662;48.814;9.318;2022-11-15T10:45:31;15.80;63.50
1337;DHT22;662;48.814;9.318;2022-11-15T10:48:26;15.80;63.10
1337;DHT22;662;48.814;9.318;2022-11-15T10:50:53;15.90;62.90
1337;DHT22;662;48.814;9.318;2022-11-15T10:53:27;16.00;62.80
1337;DHT22;662;48.814;9.318;2022-11-15T10:55:57;15.90;62.20
1337;DHT22;662;48.814;9.318;2022-11-15T10:58:42;16.00;61.70
1337;DHT22;662;48.814;9.318;2022-11-15T11:01:44;16.00;61.30
1337;DHT22;662;48.814;9.318;2022-11-15T11:04:11;16.00;60.90
1337;DHT22;662;48.814;9.318;2022-11-15T11:06:58;16.10;61.00
1337;DHT22;662;48.814;9.318;2022-11-15T11:09:39;16.10;61.20
1337;DHT22;662;48.814;9.318;2022-11-15T11:12:10;16.10;61.20
1337;DHT22;662;48.814;9.318;2022-11-15T11:14:38;16.20;61.30
1337;DHT22;662;48.814;9.318;2022-11-15T11:17:26;16.20;60.80
1337;DHT22;662;48.814;9.318;2022-11-15T11:31:22;16.10;60.90
1337;DHT22;662;48.814;9.318;2022-11-15T11:37:11;16.10;60.70
1337;DHT22;662;48.814;9.318;2022-11-15T11:43:14;16.30;60.10
1337;DHT22;662;48.814;9.318;2022-11-15T11:48:14;16.50;59.60
1337;DHT22;662;48.814;9.318;2022-11-15T11:50:46;16.50;59.60
1337;DHT22;662;48.814;9.318;2022-11-15T11:53:41;16.60;59.70
1337;DHT22;662;48.814;9.318;2022-11-15T11:56:17;16.60;59.50
1337;DHT22;662;48.814;9.318;2022-11-15T11:58:46;16.60;59.90
1337;DHT22;662;48.814;9.318;2022-11-15T12:01:41;16.50;59.30
1337;DHT22;662;48.814;9.318;2022-11-15T12:07:27;16.50;58.00
1337;DHT22;662;48.814;9.318;2022-11-15T12:12:50;16.40;56.90
1337;DHT22;662;48.814;9.318;2022-11-15T12:15:24;16.40;57.00
1337;DHT22;662;48.814;9.318;2022-11-15T12:17:52;16.40;56.70
1337;DHT22;662;48.814;9.318;2022-11-15T12:20:24;16.40;56.60
1337;DHT22;662;48.814;9.318;2022-11-15T12:28:55;16.70;56.50
1337;DHT22;662;48.814;9.318;2022-11-15T12:33:56;16.70;56.60
1337;DHT22;662;48.814;9.318;2022-11-15T12:41:24;16.70;57.40
1337;DHT22;662;48.814;9.318;2022-11-15T12:43:50;16.70;57.50
1337;DHT22;662;48.814;9.318;2022-11-15T12:46:20;16.60;57.30
1337;DHT22;662;48.814;9.318;2022-11-15T12:51:14;16.50;57.50
1337;DHT22;662;48.814;9.318;2022-11-15T12:53:40;16.50;57.50
1337;DHT22;662;48.814;9.318;2022-11-15T13:12:10;16.30;58.20
1337;DHT22;662;48.814;9.318;2022-11-15T13:14:40;16.30;58.20
1337;DHT22;662;48.814;9.318;2022-11-15T13:17:29;16.20;58.10
1337;DHT22;662;48.814;9.318;2022-11-15T13:20:22;16.20;58.20
1337;DHT22;662;48.814;9.318;2022-11-15T13:29:12;16.10;58.50
1337;DHT22;662;48.814;9.318;2022-11-15T13:31:19;16.10;58.50
1337;DHT22;662;48.814;9.318;2022-11-15T13:33:46;16.10;58.70
1337;DHT22;662;48.814;9.318;2022-11-15T13:36:22;16.10;58.80
1337;DHT22;662;48.814;9.318;2022-11-15T13:41:23;16.00;58.70
1337;DHT22;662;48.814;9.318;2022-11-15T13:43:51;16.00;58.30
1337;DHT22;662;48.814;9.318;2022-11-15T13:46:24;16.00;58.20
1337;DHT22;662;48.814;9.318;2022-11-15T13:49:01;15.90;58.10
1337;DHT22;662;48.814;9.318;2022-11-15T13:51:38;15.90;58.00
1337;DHT22;662;48.814;9.318;2022-11-15T13:56:48;15.90;57.50
1337;DHT22;662;48.814;9.318;2022-11-15T14:01:52;15.80;57.40
1337;DHT22;662;48.814;9.318;2022-11-15T14:04:21;15.80;57.30
1337;DHT22;662;48.814;9.318;2022-11-15T14:06:50;15.80;57.30
1337;DHT22;662;48.814;9.318;2022-11-15T14:09:29;15.80;57.40
1337;DHT22;662;48.814;9.318;2022-11-15T14:11:57;15.80;57.40
1337;DHT22;662;48.814;9.318;2022-11-15T14:14:28;15.70;57.20
1337;DHT22;662;48.814;9.318;2022-11-15T14:16:57;15.70;57.30
1337;DHT22;662;48.814;9.318;2022-11-15T14:22:08;15.70;57.60
1337;DHT22;662;48.814;9.318;2022-11-15T14:24:34;15.60;57.60
1337;DHT22;662;48.814;9.318;2022-11-15T14:27:25;15.60;57.70
1337;DHT22;662;48.814;9.318;2022-11-15T14:29:52;15.60;58.10
1337;DHT22;662;48.814;9.318;2022-11-15T14:32:28;15.50;58.30
1337;DHT22;662;48.814;9.318;2022-11-15T14:34:58;15.50;58.70
1337;DHT22;662;48.814;9.318;2022-11-15T14:37:29;15.50;59.10
1337;DHT22;662;48.814;9.318;2022-11-15T14:40:00;15.40;59.50
1337;DHT22;662;48.814;9.318;2022-11-15T14:42:26;15.40;59.80
1337;DHT22;662;48.814;9.318;2022-11-15T14:44:52;15.30;60.20
1337;DHT22;662;48.814;9.318;2022-11-15T14:47:18;15.30;60.90
1337;DHT22;662;48.814;9.318;2022-11-15T14:49:44;15.30;61.40
1337;DHT22;662;48.814;9.318;2022-11-15T14:52:29;15.20;61.60
1337;DHT22;662;48.814;9.318;2022-11-15T14:54:56;15.20;61.80
1337;DHT22;662;48.814;9.318;2022-11-15T14:57:23;15.20;62.10
1337;DHT22;662;48.814;9.318;2022-11-15T14:59:49;15.20;62.30
1337;DHT22;662;48.814;9.318;2022-11-15T15:02:20;15.10;62.30
1337;DHT22;662;48.814;9.318;2022-11-15T15:04:47;15.10;62.50
1337;DHT22;662;48.814;9.318;2022-11-15T15:07:12;15.10;62.70
1337;DHT22;662;48.814;9.318;2022-11-15T15:09:38;15.10;63.00
1337;DHT22;662;48.814;9.318;2022-11-15T15:12:11;15.00;63.20
1337;DHT22;662;48.814;9.318;2022-11-15T15:14:37;15.00;63.60
1337;DHT22;662;48.814;9.318;2022-11-15T15:17:03;14.90;63.70
1337;DHT22;662;48.814;9.318;2022-11-15T15:19:30;14.90;64.00
1337;DHT22;662;48.814;9.318;2022-11-15T15:21:55;14.90;64.10
1337;DHT22;662;48.814;9.318;2022-11-15T15:24:21;14.80;64.30
1337;DHT22;662;48.814;9.318;2022-11-15T15:26:47;14.80;64.50
1337;DHT22;662;48.814;9.318;2022-11-15T15:29:12;14.80;64.60
1337;DHT22;662;48.814;9.318;2022-11-15T15:31:38;14.80;65.60
1337;DHT22;662;48.814;9.318;2022-11-15T15:34:04;14.70;65.70
1337;DHT22;662;48.814;9.318;2022-11-15T15:36:30;14.70;65.30
1337;DHT22;662;48.814;9.318;2022-11-15T15:38:55;14.60;65.40
1337;DHT22;662;48.814;9.318;2022-11-15T15:41:21;14.60;65.60
1337;DHT22;662;48.814;9.318;2022-11-15T15:43:46;14.60;65.70
1337;DHT22;662;48.814;9.318;2022-11-15T15:46:17;14.60;66.70
1337;DHT22;662;48.814;9.318;2022-11-15T15:48:44;14.50;66.20
1337;DHT22;662;48.814;9.318;2022-11-15T15:51:10;14.50;66.50
1337;DHT22;662;48.814;9.318;2022-11-15T15:53:35;14.50;66.80
1337;DHT22;662;48.814;9.318;2022-11-15T15:56:01;14.50;67.00
1337;DHT22;662;48.814;9.318;2022-11-15T15:58:27;14.40;67.10
1337;DHT22;662;48.814;9.318;2022-11-15T16:00:53;14.40;67.30
1337;DHT22;662;48.814;9.318;2022-11-15T16:03:18;14.40;67.40
1337;DHT22;662;48.814;9.318;2022-11-15T16:05:44;14.30;67.30
1337;DHT22;662;48.814;9.318;2022-11-15T16:08:21;14.30;67.40
1337;DHT22;662;48.814;9.318;2022-11-15T16:10:47;14.30;67.50
1337;DHT22;662;48.814;9.318;2022-11-15T16:13:12;14.20;67.40
1337;DHT22;662;48.814;9.318;2022-11-15T16:15:38;14.30;67.60
1337;DHT22;662;48.814;9.318;2022-11-15T16:18:04;14.30;67.70
1337;DHT22;662;48.814;9.318;2022-11-15T16:22:59;14.20;67.90
1337;DHT22;662;48.814;9.318;2022-11-15T16:25:25;14.20;68.00
1337;DHT22;662;48.814;9.318;2022-11-15T16:27:51;14.20;68.10
1337;DHT22;662;48.814;9.318;2022-11-15T16:30:19;14.20;68.30
1337;DHT22;662;48.814;9.318;2022-11-15T16:32:45;14.10;68.30
1337;DHT22;662;48.814;9.318;2022-11-15T16:35:12;14.10;68.30
1337;DHT22;662;48.814;9.318;2022-11-15T16:37:38;14.10;68.40
1337;DHT22;662;48.814;9.318;2022-11-15T16:40:38;14.10;68.50
1337;DHT22;662;48.814;9.318;2022-11-15T16:43:04;14.10;68.60
1337;DHT22;662;48.814;9.318;2022-11-15T16:45:33;14.00;68.60
1337;DHT22;662;48.814;9.318;2022-11-15T16:48:00;14.10;68.60
1337;DHT22;662;48.814;9.318;2022-11-15T16:50:29;14.00;68.60
1337;DHT22;662;48.814;9.318;2022-11-15T16:52:57;14.00;68.60
1337;DHT22;662;48.814;9.318;2022-11-15T16:55:25;14.00;68.60
1337;DHT22;662;48.814;9.318;2022-11-15T16:57:51;14.00;68.60
1337;DHT22;662;48.814;9.318;2022-11-15T17:00:18;14.00;68.60
1337;DHT22;662;48.814;9.318;2022-11-15T17:02:45;14.00;68.50
1337;DHT22;662;48.814;9.318;2022-11-15T17:05:12;14.00;68.50
1337;DHT22;662;48.814;9.318;2022-11-15T17:07:38;14.00;68.30
1337;DHT22;662;48.814;9.318;2022-11-15T17:10:05;14.00;68.30
1337;DHT22;662;48.814;9.318;2022-11-15T17:12:33;14.00;68.30
1337;DHT22;662;48.814;9.318;2022-11-15T17:14:59;14.00;68.20
1337;DHT22;662;48.814;9.318;2022-11-15T17:17:24;13.90;68.10
1337;DHT22;662;48.814;9.318;2022-11-15T17:19:51;13.90;68.10
1337;DHT22;662;48.814;9.318;2022-11-15T17:22:18;13.90;68.00
1337;DHT22;662;48.814;9.318;2022-11-15T17:24:44;13.90;67.90
1337;DHT22;662;48.814;9.318;2022-11-15T17:27:09;13.90;67.70
1337;DHT22;662;48.814;9.318;2022-11-15T17:29:35;13.90;67.60
1337;DHT22;662;48.814;9.318;2022-11-15T17:32:01;13.90;67.40
1337;DHT22;662;48.814;9.318;2022-11-15T17:34:27;13.90;67.30
1337;DHT22;662;48.814;9.318;2022-11-15T17:36:52;13.90;67.20
1337;DHT22;662;48.814;9.318;2022-11-15T17:39:18;13.90;67.00
1337;DHT22;662;48.814;9.318;2022-11-15T17:41:46;13.90;66.90
1337;DHT22;662;48.814;9.318;2022-11-15T17:44:12;13.90;67.00
1337;DHT22;662;48.814;9.318;2022-11-15T17:46:37;13.90;67.00
1337;DHT22;662;48.814;9.318;2022-11-15T17:49:05;13.90;67.00
1337;DHT22;662;48.814;9.318;2022-11-15T17:51:31;13.90;67.00
1337;DHT22;662;48.814;9.318;2022-11-15T17:53:56;13.90;66.90
1337;DHT22;662;48.814;9.318;2022-11-15T17:56:24;13.90;66.90
1337;DHT22;662;48.814;9.318;2022-11-15T17:58:55;13.90;66.90
1337;DHT22;662;48.814;9.318;2022-11-15T18:01:27;13.90;66.80
1337;DHT22;662;48.814;9.318;2022-11-15T18:03:53;13.90;66.80
1337;DHT22;662;48.814;9.318;2022-11-15T18:06:20;13.90;66.90
1337;DHT22;662;48.814;9.318;2022-11-15T18:08:48;13.90;66.80
1337;DHT22;662;48.814;9.318;2022-11-15T18:11:17;14.00;66.90
1337;DHT22;662;48.814;9.318;2022-11-15T18:13:45;13.90;66.80
1337;DHT22;662;48.814;9.318;2022-11-15T18:16:13;13.90;66.90
1337;DHT22;662;48.814;9.318;2022-11-15T18:18:39;13.90;66.90
1337;DHT22;662;48.814;9.318;2022-11-15T18:21:19;13.90;67.00
1337;DHT22;662;48.814;9.318;2022-11-15T18:23:46;13.90;67.00
1337;DHT22;662;48.814;9.318;2022-11-15T18:26:15;13.90;67.10